sensor_id;sensor_type;location;lat;lon;timestamp;P1;durP1;ratioP1;P2;durP2;ratioP2
28245;SDS011;15510;52.512;13.300;2023-06-14T00:00:58;2.25;;;1.50;;
28245;SDS011;15510;52.512;13.300;2023-06-14T00:03:24;2.42;;;1.58;;
28245;SDS011;15510;52.512;13.300;2023-06-14T00:05:51;4.07;;;1.67;;
28245;SDS011;15510;52.512;13.300;2023-06-14T00:08:17;2.08;;;1.60;;
28245;SDS011;15510;52.512;13.300;2023-06-14T00:10:44;2.08;;;1.88;;
28245;SDS011;15510;52.512;13.300;2023-06-14T00:13:10;2.28;;;1.92;;
28245;SDS011;15510;52.512;13.300;2023-06-14T00:15:35;5.28;;;2.03;;
28245;SDS011;15510;52.512;13.300;2023-06-14T00:18:01;4.50;;;1.60;;
28245;SDS011;15510;52.512;13.300;2023-06-14T00:20:29;2.60;;;1.80;;
28245;SDS011;15510;52.512;13.300;2023-06-14T00:22:58;4.00;;;2.08;;
28245;SDS011;15510;52.512;13.300;2023-06-14T00:25:24;2.47;;;1.73;;
28245;SDS011;15510;52.512;13.300;2023-06-14T00:27:51;2.97;;;2.00;;
28245;SDS011;15510;52.512;13.300;2023-06-14T00:30:17;4.50;;;2.13;;
28245;SDS011;15510;52.512;13.300;2023-06-14T00:32:43;3.55;;;2.20;;
28245;SDS011;15510;52.512;13.300;2023-06-14T00:35:10;2.53;;;2.33;;
28245;SDS011;15510;52.512;13.300;2023-06-14T00:37:36;2.55;;;2.03;;
28245;SDS011;15510;52.512;13.300;2023-06-14T00:40:02;3.78;;;2.22;;
28245;SDS011;15510;52.512;13.300;2023-06-14T00:42:29;2.55;;;2.15;;
28245;SDS011;15510;52.512;13.300;2023-06-14T00:44:56;2.30;;;2.10;;
28245;SDS011;15510;52.512;13.300;2023-06-14T00:47:23;1.95;;;1.85;;
28245;SDS011;15510;52.512;13.300;2023-06-14T00:49:50;3.70;;;2.03;;
28245;SDS011;15510;52.512;13.300;2023-06-14T00:52:17;2.63;;;2.42;;
28245;SDS011;15510;52.512;13.300;2023-06-14T00:54:43;4.88;;;2.60;;
28245;SDS011;15510;52.512;13.300;2023-06-14T00:57:09;2.65;;;2.45;;
28245;SDS011;15510;52.512;13.300;2023-06-14T00:59:42;4.07;;;2.60;;
28245;SDS011;15510;52.512;13.300;2023-06-14T01:02:09;7.15;;;2.38;;
28245;SDS011;15510;52.512;13.300;2023-06-14T01:04:36;8.52;;;2.83;;
28245;SDS011;15510;52.512;13.300;2023-06-14T01:09:47;3.95;;;2.67;;
28245;SDS011;15510;52.512;13.300;2023-06-14T01:12:15;4.85;;;2.30;;
28245;SDS011;15510;52.512;13.300;2023-06-14T01:14:49;5.00;;;2.67;;
28245;SDS011;15510;52.512;13.300;2023-06-14T01:17:18;3.65;;;2.45;;
28245;SDS011;15510;52.512;13.300;2023-06-14T01:19:47;4.75;;;2.40;;
28245;SDS011;15510;52.512;13.300;2023-06-14T01:22:13;3.13;;;2.80;;
28245;SDS011;15510;52.512;13.300;2023-06-14T01:24:39;3.08;;;2.80;;
28245;SDS011;15510;52.512;13.300;2023-06-14T01:27:10;3.50;;;3.03;;
28245;SDS011;15510;52.512;13.300;2023-06-14T01:29:37;4.88;;;2.90;;
28245;SDS011;15510;52.512;13.300;2023-06-14T01:32:04;6.03;;;3.05;;
28245;SDS011;15510;52.512;13.300;2023-06-14T01:34:30;3.75;;;2.80;;
28245;SDS011;15510;52.512;13.300;2023-06-14T01:36:56;4.28;;;2.58;;
28245;SDS011;15510;52.512;13.300;2023-06-14T01:39:24;4.03;;;2.97;;
28245;SDS011;15510;52.512;13.300;2023-06-14T01:41:50;4.70;;;3.28;;
28245;SDS011;15510;52.512;13.300;2023-06-14T01:44:17;3.78;;;2.83;;
28245;SDS011;15510;52.512;13.300;2023-06-14T01:46:45;3.75;;;3.20;;
28245;SDS011;15510;52.512;13.300;2023-06-14T01:49:11;3.67;;;3.08;;
28245;SDS011;15510;52.512;13.300;2023-06-14T01:51:37;4.22;;;3.33;;
28245;SDS011;15510;52.512;13.300;2023-06-14T01:54:02;3.60;;;3.20;;
28245;SDS011;15510;52.512;13.300;2023-06-14T01:56:30;5.55;;;3.70;;
28245;SDS011;15510;52.512;13.300;2023-06-14T01:58:56;3.05;;;2.83;;
28245;SDS011;15510;52.512;13.300;2023-06-14T02:01:22;4.07;;;2.92;;
28245;SDS011;15510;52.512;13.300;2023-06-14T02:03:47;5.03;;;3.38;;
28245;SDS011;15510;52.512;13.300;2023-06-14T02:06:15;4.93;;;3.40;;
28245;SDS011;15510;52.512;13.300;2023-06-14T02:08:43;7.95;;;3.55;;
28245;SDS011;15510;52.512;13.300;2023-06-14T02:11:09;4.15;;;3.22;;
28245;SDS011;15510;52.512;13.300;2023-06-14T02:13:35;5.35;;;3.30;;
28245;SDS011;15510;52.512;13.300;2023-06-14T02:16:01;10.32;;;3.30;;
28245;SDS011;15510;52.512;13.300;2023-06-14T02:18:27;3.20;;;2.90;;
28245;SDS011;15510;52.512;13.300;2023-06-14T02:20:55;5.72;;;4.03;;
28245;SDS011;15510;52.512;13.300;2023-06-14T02:23:21;3.53;;;3.00;;
28245;SDS011;15510;52.512;13.300;2023-06-14T02:25:46;3.72;;;3.42;;
28245;SDS011;15510;52.512;13.300;2023-06-14T02:28:12;6.63;;;3.45;;
28245;SDS011;15510;52.512;13.300;2023-06-14T02:30:38;3.92;;;3.10;;
28245;SDS011;15510;52.512;13.300;2023-06-14T02:33:04;5.20;;;3.53;;
28245;SDS011;15510;52.512;13.300;2023-06-14T02:35:31;5.43;;;3.78;;
28245;SDS011;15510;52.512;13.300;2023-06-14T02:37:57;5.13;;;3.67;;
28245;SDS011;15510;52.512;13.300;2023-06-14T02:40:23;4.65;;;3.60;;
28245;SDS011;15510;52.512;13.300;2023-06-14T02:42:49;8.00;;;3.50;;
28245;SDS011;15510;52.512;13.300;2023-06-14T02:45:15;4.85;;;3.65;;
28245;SDS011;15510;52.512;13.300;2023-06-14T02:47:42;5.75;;;4.13;;
28245;SDS011;15510;52.512;13.300;2023-06-14T02:50:07;4.93;;;3.78;;
28245;SDS011;15510;52.512;13.300;2023-06-14T02:52:34;5.20;;;3.78;;
28245;SDS011;15510;52.512;13.300;2023-06-14T02:54:59;4.47;;;3.70;;
28245;SDS011;15510;52.512;13.300;2023-06-14T02:57:25;6.25;;;3.70;;
28245;SDS011;15510;52.512;13.300;2023-06-14T02:59:51;6.30;;;3.80;;
28245;SDS011;15510;52.512;13.300;2023-06-14T03:02:18;6.65;;;3.67;;
28245;SDS011;15510;52.512;13.300;2023-06-14T03:04:44;4.30;;;3.67;;
28245;SDS011;15510;52.512;13.300;2023-06-14T03:07:14;6.15;;;4.00;;
28245;SDS011;15510;52.512;13.300;2023-06-14T03:09:46;4.43;;;4.00;;
28245;SDS011;15510;52.512;13.300;2023-06-14T03:12:12;5.43;;;3.95;;
28245;SDS011;15510;52.512;13.300;2023-06-14T03:14:38;5.13;;;3.65;;
28245;SDS011;15510;52.512;13.300;2023-06-14T03:17:06;5.38;;;3.90;;
28245;SDS011;15510;52.512;13.300;2023-06-14T03:19:34;4.57;;;3.58;;
28245;SDS011;15510;52.512;13.300;2023-06-14T03:22:00;6.13;;;3.67;;
28245;SDS011;15510;52.512;13.300;2023-06-14T03:24:28;3.92;;;3.55;;
28245;SDS011;15510;52.512;13.300;2023-06-14T03:26:57;5.88;;;3.67;;
28245;SDS011;15510;52.512;13.300;2023-06-14T03:29:24;6.03;;;4.20;;
28245;SDS011;15510;52.512;13.300;2023-06-14T03:32:01;5.15;;;4.05;;
28245;SDS011;15510;52.512;13.300;2023-06-14T03:34:39;5.38;;;4.07;;
28245;SDS011;15510;52.512;13.300;2023-06-14T03:37:09;7.28;;;3.88;;
28245;SDS011;15510;52.512;13.300;2023-06-14T03:39:35;6.47;;;3.22;;
28245;SDS011;15510;52.512;13.300;2023-06-14T03:42:01;5.68;;;4.03;;
28245;SDS011;15510;52.512;13.300;2023-06-14T03:44:27;5.15;;;3.90;;
28245;SDS011;15510;52.512;13.300;2023-06-14T03:46:54;5.47;;;4.05;;
28245;SDS011;15510;52.512;13.300;2023-06-14T03:49:20;7.40;;;4.53;;
28245;SDS011;15510;52.512;13.300;2023-06-14T03:51:46;6.25;;;4.35;;
28245;SDS011;15510;52.512;13.300;2023-06-14T03:54:17;5.15;;;3.92;;
28245;SDS011;15510;52.512;13.300;2023-06-14T03:56:42;4.93;;;4.53;;
28245;SDS011;15510;52.512;13.300;2023-06-14T03:59:10;5.75;;;4.10;;
28245;SDS011;15510;52.512;13.300;2023-06-14T04:01:35;9.00;;;4.53;;
28245;SDS011;15510;52.512;13.300;2023-06-14T04:04:01;9.00;;;4.25;;
28245;SDS011;15510;52.512;13.300;2023-06-14T04:06:27;4.50;;;4.10;;
28245;SDS011;15510;52.512;13.300;2023-06-14T04:08:58;10.13;;;4.63;;
28245;SDS011;15510;52.512;13.300;2023-06-14T04:11:29;11.38;;;4.53;;
28245;SDS011;15510;52.512;13.300;2023-06-14T04:13:57;5.28;;;4.35;;
28245;SDS011;15510;52.512;13.300;2023-06-14T04:16:24;10.23;;;5.10;;
28245;SDS011;15510;52.512;13.300;2023-06-14T04:18:54;7.38;;;3.97;;
28245;SDS011;15510;52.512;13.300;2023-06-14T04:21:21;7.85;;;4.47;;
28245;SDS011;15510;52.512;13.300;2023-06-14T04:23:51;8.88;;;4.43;;
28245;SDS011;15510;52.512;13.300;2023-06-14T04:26:19;8.18;;;4.97;;
28245;SDS011;15510;52.512;13.300;2023-06-14T04:28:46;8.15;;;4.50;;
28245;SDS011;15510;52.512;13.300;2023-06-14T04:31:12;6.20;;;5.18;;
28245;SDS011;15510;52.512;13.300;2023-06-14T04:33:38;5.93;;;4.63;;
28245;SDS011;15510;52.512;13.300;2023-06-14T04:36:11;5.68;;;4.13;;
28245;SDS011;15510;52.512;13.300;2023-06-14T04:38:39;5.50;;;4.57;;
28245;SDS011;15510;52.512;13.300;2023-06-14T04:41:06;4.93;;;4.53;;
28245;SDS011;15510;52.512;13.300;2023-06-14T04:43:41;6.72;;;4.60;;
28245;SDS011;15510;52.512;13.300;2023-06-14T04:46:08;5.35;;;4.82;;
28245;SDS011;15510;52.512;13.300;2023-06-14T04:48:35;9.20;;;5.28;;
28245;SDS011;15510;52.512;13.300;2023-06-14T04:51:01;5.13;;;4.53;;
28245;SDS011;15510;52.512;13.300;2023-06-14T04:53:29;7.05;;;4.38;;
28245;SDS011;15510;52.512;13.300;2023-06-14T04:55:56;6.18;;;4.97;;
28245;SDS011;15510;52.512;13.300;2023-06-14T04:58:24;5.45;;;4.20;;
28245;SDS011;15510;52.512;13.300;2023-06-14T05:00:50;5.32;;;4.85;;
28245;SDS011;15510;52.512;13.300;2023-06-14T05:03:16;7.75;;;5.63;;
28245;SDS011;15510;52.512;13.300;2023-06-14T05:05:43;5.53;;;4.65;;
28245;SDS011;15510;52.512;13.300;2023-06-14T05:08:11;7.45;;;4.90;;
28245;SDS011;15510;52.512;13.300;2023-06-14T05:10:37;6.97;;;4.93;;
28245;SDS011;15510;52.512;13.300;2023-06-14T05:13:04;5.78;;;4.63;;
28245;SDS011;15510;52.512;13.300;2023-06-14T05:15:30;5.13;;;4.63;;
28245;SDS011;15510;52.512;13.300;2023-06-14T05:17:56;8.65;;;5.00;;
28245;SDS011;15510;52.512;13.300;2023-06-14T05:20:22;10.52;;;4.80;;
28245;SDS011;15510;52.512;13.300;2023-06-14T05:22:52;8.52;;;5.07;;
28245;SDS011;15510;52.512;13.300;2023-06-14T05:25:21;5.72;;;5.03;;
28245;SDS011;15510;52.512;13.300;2023-06-14T05:27:47;9.07;;;5.10;;
28245;SDS011;15510;52.512;13.300;2023-06-14T05:30:14;5.03;;;4.47;;
28245;SDS011;15510;52.512;13.300;2023-06-14T05:32:40;7.47;;;4.80;;
28245;SDS011;15510;52.512;13.300;2023-06-14T05:35:09;5.40;;;4.55;;
28245;SDS011;15510;52.512;13.300;2023-06-14T05:37:35;10.10;;;5.45;;
28245;SDS011;15510;52.512;13.300;2023-06-14T05:40:02;7.07;;;4.13;;
28245;SDS011;15510;52.512;13.300;2023-06-14T05:42:38;6.43;;;5.03;;
28245;SDS011;15510;52.512;13.300;2023-06-14T05:45:03;8.63;;;4.70;;
28245;SDS011;15510;52.512;13.300;2023-06-14T05:47:31;5.32;;;4.72;;
28245;SDS011;15510;52.512;13.300;2023-06-14T05:49:56;9.95;;;4.68;;
28245;SDS011;15510;52.512;13.300;2023-06-14T05:52:28;8.10;;;5.40;;
28245;SDS011;15510;52.512;13.300;2023-06-14T05:54:54;6.78;;;4.68;;
28245;SDS011;15510;52.512;13.300;2023-06-14T05:57:20;4.85;;;4.28;;
28245;SDS011;15510;52.512;13.300;2023-06-14T05:59:46;12.88;;;4.78;;
28245;SDS011;15510;52.512;13.300;2023-06-14T06:02:12;4.30;;;3.90;;
28245;SDS011;15510;52.512;13.300;2023-06-14T06:04:38;6.05;;;4.82;;
28245;SDS011;15510;52.512;13.300;2023-06-14T06:07:04;6.15;;;4.50;;
28245;SDS011;15510;52.512;13.300;2023-06-14T06:09:30;6.10;;;4.38;;
28245;SDS011;15510;52.512;13.300;2023-06-14T06:11:57;6.05;;;4.15;;
28245;SDS011;15510;52.512;13.300;2023-06-14T06:14:22;6.78;;;4.18;;
28245;SDS011;15510;52.512;13.300;2023-06-14T06:16:48;5.45;;;4.68;;
28245;SDS011;15510;52.512;13.300;2023-06-14T06:19:14;9.27;;;4.72;;
28245;SDS011;15510;52.512;13.300;2023-06-14T06:21:40;8.48;;;4.55;;
28245;SDS011;15510;52.512;13.300;2023-06-14T06:24:06;8.57;;;4.00;;
28245;SDS011;15510;52.512;13.300;2023-06-14T06:26:32;4.63;;;3.85;;
28245;SDS011;15510;52.512;13.300;2023-06-14T06:28:58;6.05;;;4.80;;
28245;SDS011;15510;52.512;13.300;2023-06-14T06:31:27;6.50;;;5.00;;
28245;SDS011;15510;52.512;13.300;2023-06-14T06:33:56;11.13;;;4.95;;
28245;SDS011;15510;52.512;13.300;2023-06-14T06:36:22;10.80;;;5.18;;
28245;SDS011;15510;52.512;13.300;2023-06-14T06:38:48;8.82;;;4.60;;
28245;SDS011;15510;52.512;13.300;2023-06-14T06:41:13;8.35;;;4.57;;
28245;SDS011;15510;52.512;13.300;2023-06-14T06:43:39;6.93;;;4.35;;
28245;SDS011;15510;52.512;13.300;2023-06-14T06:46:07;10.02;;;5.35;;
28245;SDS011;15510;52.512;13.300;2023-06-14T06:48:33;6.53;;;4.28;;
28245;SDS011;15510;52.512;13.300;2023-06-14T06:50:59;11.27;;;4.95;;
28245;SDS011;15510;52.512;13.300;2023-06-14T06:53:27;4.93;;;3.90;;
28245;SDS011;15510;52.512;13.300;2023-06-14T06:55:53;7.13;;;3.97;;
28245;SDS011;15510;52.512;13.300;2023-06-14T06:58:19;7.95;;;4.38;;
28245;SDS011;15510;52.512;13.300;2023-06-14T07:00:47;10.93;;;4.10;;
28245;SDS011;15510;52.512;13.300;2023-06-14T07:03:13;4.75;;;3.92;;
28245;SDS011;15510;52.512;13.300;2023-06-14T07:05:41;5.53;;;3.90;;
28245;SDS011;15510;52.512;13.300;2023-06-14T07:08:10;6.45;;;4.22;;
28245;SDS011;15510;52.512;13.300;2023-06-14T07:10:36;9.80;;;3.85;;
28245;SDS011;15510;52.512;13.300;2023-06-14T07:13:02;7.90;;;4.50;;
28245;SDS011;15510;52.512;13.300;2023-06-14T07:15:28;7.57;;;3.95;;
28245;SDS011;15510;52.512;13.300;2023-06-14T07:17:54;9.93;;;3.80;;
28245;SDS011;15510;52.512;13.300;2023-06-14T07:20:24;9.07;;;3.90;;
28245;SDS011;15510;52.512;13.300;2023-06-14T07:22:50;8.00;;;4.18;;
28245;SDS011;15510;52.512;13.300;2023-06-14T07:25:16;7.55;;;4.20;;
28245;SDS011;15510;52.512;13.300;2023-06-14T07:27:45;5.18;;;4.03;;
28245;SDS011;15510;52.512;13.300;2023-06-14T07:30:11;7.45;;;4.25;;
28245;SDS011;15510;52.512;13.300;2023-06-14T07:32:37;14.27;;;4.28;;
28245;SDS011;15510;52.512;13.300;2023-06-14T07:35:03;13.52;;;4.55;;
28245;SDS011;15510;52.512;13.300;2023-06-14T07:37:32;11.13;;;4.38;;
28245;SDS011;15510;52.512;13.300;2023-06-14T07:40:01;6.82;;;4.43;;
28245;SDS011;15510;52.512;13.300;2023-06-14T07:42:33;9.68;;;3.95;;
28245;SDS011;15510;52.512;13.300;2023-06-14T07:45:00;8.35;;;4.07;;
28245;SDS011;15510;52.512;13.300;2023-06-14T07:47:26;6.85;;;4.18;;
28245;SDS011;15510;52.512;13.300;2023-06-14T07:49:54;4.35;;;3.53;;
28245;SDS011;15510;52.512;13.300;2023-06-14T07:52:20;6.60;;;3.70;;
28245;SDS011;15510;52.512;13.300;2023-06-14T07:54:46;7.47;;;3.20;;
28245;SDS011;15510;52.512;13.300;2023-06-14T07:57:12;4.45;;;3.58;;
28245;SDS011;15510;52.512;13.300;2023-06-14T07:59:38;6.40;;;3.25;;
28245;SDS011;15510;52.512;13.300;2023-06-14T08:02:04;7.60;;;3.30;;
28245;SDS011;15510;52.512;13.300;2023-06-14T08:04:32;6.40;;;3.40;;
28245;SDS011;15510;52.512;13.300;2023-06-14T08:07:00;8.57;;;3.45;;
28245;SDS011;15510;52.512;13.300;2023-06-14T08:09:32;6.03;;;3.40;;
28245;SDS011;15510;52.512;13.300;2023-06-14T08:11:58;7.13;;;3.60;;
28245;SDS011;15510;52.512;13.300;2023-06-14T08:14:23;6.03;;;2.80;;
28245;SDS011;15510;52.512;13.300;2023-06-14T08:16:49;4.95;;;2.88;;
28245;SDS011;15510;52.512;13.300;2023-06-14T08:19:15;5.25;;;3.50;;
28245;SDS011;15510;52.512;13.300;2023-06-14T08:21:47;5.43;;;3.03;;
28245;SDS011;15510;52.512;13.300;2023-06-14T08:24:13;8.70;;;3.53;;
28245;SDS011;15510;52.512;13.300;2023-06-14T08:26:39;4.63;;;3.17;;
28245;SDS011;15510;52.512;13.300;2023-06-14T08:29:05;3.67;;;3.38;;
28245;SDS011;15510;52.512;13.300;2023-06-14T08:31:34;6.50;;;3.40;;
28245;SDS011;15510;52.512;13.300;2023-06-14T08:34:03;6.60;;;3.20;;
28245;SDS011;15510;52.512;13.300;2023-06-14T08:36:28;6.45;;;3.00;;
28245;SDS011;15510;52.512;13.300;2023-06-14T08:38:54;6.90;;;3.38;;
28245;SDS011;15510;52.512;13.300;2023-06-14T08:41:22;7.07;;;3.63;;
28245;SDS011;15510;52.512;13.300;2023-06-14T08:43:51;9.00;;;3.15;;
28245;SDS011;15510;52.512;13.300;2023-06-14T08:46:18;2.70;;;2.33;;
28245;SDS011;15510;52.512;13.300;2023-06-14T08:48:54;7.65;;;3.13;;
28245;SDS011;15510;52.512;13.300;2023-06-14T08:51:30;6.88;;;5.18;;
28245;SDS011;15510;52.512;13.300;2023-06-14T08:54:01;4.85;;;2.97;;
28245;SDS011;15510;52.512;13.300;2023-06-14T08:56:31;5.15;;;3.03;;
28245;SDS011;15510;52.512;13.300;2023-06-14T08:59:02;5.93;;;2.58;;
28245;SDS011;15510;52.512;13.300;2023-06-14T09:01:35;8.70;;;3.20;;
28245;SDS011;15510;52.512;13.300;2023-06-14T09:04:02;6.40;;;2.83;;
28245;SDS011;15510;52.512;13.300;2023-06-14T09:06:33;6.00;;;2.72;;
28245;SDS011;15510;52.512;13.300;2023-06-14T09:09:11;3.60;;;2.83;;
28245;SDS011;15510;52.512;13.300;2023-06-14T09:12:07;6.53;;;2.63;;
28245;SDS011;15510;52.512;13.300;2023-06-14T09:15:01;9.80;;;2.70;;
28245;SDS011;15510;52.512;13.300;2023-06-14T09:17:39;5.95;;;2.70;;
28245;SDS011;15510;52.512;13.300;2023-06-14T09:20:06;4.65;;;2.13;;
28245;SDS011;15510;52.512;13.300;2023-06-14T09:22:43;5.40;;;2.15;;
28245;SDS011;15510;52.512;13.300;2023-06-14T09:25:09;2.53;;;2.20;;
28245;SDS011;15510;52.512;13.300;2023-06-14T09:27:40;4.53;;;2.22;;
28245;SDS011;15510;52.512;13.300;2023-06-14T09:30:09;4.88;;;2.28;;
28245;SDS011;15510;52.512;13.300;2023-06-14T09:32:38;6.68;;;2.53;;
28245;SDS011;15510;52.512;13.300;2023-06-14T09:35:08;7.38;;;2.25;;
28245;SDS011;15510;52.512;13.300;2023-06-14T09:37:34;5.78;;;2.38;;
28245;SDS011;15510;52.512;13.300;2023-06-14T09:40:01;2.75;;;2.20;;
28245;SDS011;15510;52.512;13.300;2023-06-14T09:42:28;5.82;;;2.83;;
28245;SDS011;15510;52.512;13.300;2023-06-14T09:44:57;8.02;;;3.15;;
28245;SDS011;15510;52.512;13.300;2023-06-14T09:47:26;4.05;;;2.90;;
28245;SDS011;15510;52.512;13.300;2023-06-14T09:49:52;5.97;;;3.15;;
28245;SDS011;15510;52.512;13.300;2023-06-14T09:52:25;4.43;;;2.85;;
28245;SDS011;15510;52.512;13.300;2023-06-14T09:54:52;3.35;;;2.47;;
28245;SDS011;15510;52.512;13.300;2023-06-14T09:57:21;10.25;;;2.60;;
28245;SDS011;15510;52.512;13.300;2023-06-14T09:59:48;6.25;;;2.63;;
28245;SDS011;15510;52.512;13.300;2023-06-14T10:02:24;4.60;;;2.90;;
28245;SDS011;15510;52.512;13.300;2023-06-14T10:05:04;8.25;;;2.70;;
28245;SDS011;15510;52.512;13.300;2023-06-14T10:07:53;3.45;;;2.70;;
28245;SDS011;15510;52.512;13.300;2023-06-14T10:10:26;7.68;;;2.85;;
28245;SDS011;15510;52.512;13.300;2023-06-14T10:12:55;8.20;;;3.15;;
28245;SDS011;15510;52.512;13.300;2023-06-14T10:20:55;5.35;;;2.60;;
28245;SDS011;15510;52.512;13.300;2023-06-14T10:23:35;11.02;;;2.88;;
28245;SDS011;15510;52.512;13.300;2023-06-14T10:26:08;11.80;;;3.17;;
28245;SDS011;15510;52.512;13.300;2023-06-14T10:28:42;10.52;;;3.08;;
28245;SDS011;15510;52.512;13.300;2023-06-14T10:31:40;5.82;;;2.60;;
28245;SDS011;15510;52.512;13.300;2023-06-14T10:34:21;4.15;;;2.80;;
28245;SDS011;15510;52.512;13.300;2023-06-14T10:39:44;8.95;;;2.50;;
28245;SDS011;15510;52.512;13.300;2023-06-14T10:42:13;7.15;;;3.10;;
28245;SDS011;15510;52.512;13.300;2023-06-14T10:44:49;5.30;;;2.70;;
28245;SDS011;15510;52.512;13.300;2023-06-14T10:47:20;5.47;;;2.38;;
28245;SDS011;15510;52.512;13.300;2023-06-14T10:49:58;6.38;;;2.92;;
28245;SDS011;15510;52.512;13.300;2023-06-14T10:52:39;8.10;;;3.25;;
28245;SDS011;15510;52.512;13.300;2023-06-14T10:55:08;5.32;;;2.95;;
28245;SDS011;15510;52.512;13.300;2023-06-14T10:57:42;4.63;;;2.78;;
28245;SDS011;15510;52.512;13.300;2023-06-14T11:00:22;6.07;;;2.88;;
28245;SDS011;15510;52.512;13.300;2023-06-14T11:03:13;7.47;;;2.20;;
28245;SDS011;15510;52.512;13.300;2023-06-14T11:06:15;6.88;;;3.45;;
28245;SDS011;15510;52.512;13.300;2023-06-14T11:11:35;4.45;;;2.83;;
28245;SDS011;15510;52.512;13.300;2023-06-14T11:14:10;3.28;;;2.35;;
28245;SDS011;15510;52.512;13.300;2023-06-14T11:16:40;3.45;;;2.67;;
28245;SDS011;15510;52.512;13.300;2023-06-14T11:19:06;6.03;;;2.80;;
28245;SDS011;15510;52.512;13.300;2023-06-14T11:21:39;6.72;;;3.05;;
28245;SDS011;15510;52.512;13.300;2023-06-14T11:24:11;5.18;;;2.33;;
28245;SDS011;15510;52.512;13.300;2023-06-14T11:26:47;7.60;;;2.30;;
28245;SDS011;15510;52.512;13.300;2023-06-14T11:29:16;14.10;;;8.73;;
28245;SDS011;15510;52.512;13.300;2023-06-14T11:31:59;5.38;;;3.00;;
28245;SDS011;15510;52.512;13.300;2023-06-14T11:34:45;5.43;;;2.55;;
28245;SDS011;15510;52.512;13.300;2023-06-14T11:37:21;6.25;;;2.25;;
28245;SDS011;15510;52.512;13.300;2023-06-14T11:40:00;3.65;;;2.10;;
28245;SDS011;15510;52.512;13.300;2023-06-14T11:46:48;4.03;;;2.30;;
28245;SDS011;15510;52.512;13.300;2023-06-14T11:49:02;7.97;;;4.35;;
28245;SDS011;15510;52.512;13.300;2023-06-14T11:52:08;4.28;;;2.67;;
28245;SDS011;15510;52.512;13.300;2023-06-14T11:54:53;10.85;;;2.30;;
28245;SDS011;15510;52.512;13.300;2023-06-14T11:57:25;10.63;;;2.35;;
28245;SDS011;15510;52.512;13.300;2023-06-14T11:59:56;3.92;;;2.10;;
28245;SDS011;15510;52.512;13.300;2023-06-14T12:02:37;8.88;;;2.28;;
28245;SDS011;15510;52.512;13.300;2023-06-14T12:06:01;6.43;;;2.50;;
28245;SDS011;15510;52.512;13.300;2023-06-14T12:09:21;4.88;;;2.17;;
28245;SDS011;15510;52.512;13.300;2023-06-14T12:12:42;4.32;;;2.22;;
28245;SDS011;15510;52.512;13.300;2023-06-14T12:18:36;3.30;;;2.20;;
28245;SDS011;15510;52.512;13.300;2023-06-14T12:21:11;6.45;;;1.98;;
28245;SDS011;15510;52.512;13.300;2023-06-14T12:26:39;5.32;;;2.28;;
28245;SDS011;15510;52.512;13.300;2023-06-14T12:29:19;5.82;;;3.00;;
28245;SDS011;15510;52.512;13.300;2023-06-14T12:31:53;10.73;;;1.90;;
28245;SDS011;15510;52.512;13.300;2023-06-14T12:35:07;4.65;;;1.77;;
28245;SDS011;15510;52.512;13.300;2023-06-14T12:37:57;7.32;;;1.92;;
28245;SDS011;15510;52.512;13.300;2023-06-14T12:50:53;4.78;;;1.75;;
28245;SDS011;15510;52.512;13.300;2023-06-14T12:54:19;8.10;;;1.83;;
28245;SDS011;15510;52.512;13.300;2023-06-14T12:57:35;5.38;;;2.00;;
28245;SDS011;15510;52.512;13.300;2023-06-14T13:00:05;5.28;;;1.70;;
28245;SDS011;15510;52.512;13.300;2023-06-14T13:05:49;11.88;;;1.90;;
28245;SDS011;15510;52.512;13.300;2023-06-14T13:08:16;3.92;;;1.80;;
28245;SDS011;15510;52.512;13.300;2023-06-14T13:10:41;8.52;;;1.80;;
28245;SDS011;15510;52.512;13.300;2023-06-14T13:13:10;9.40;;;2.03;;
28245;SDS011;15510;52.512;13.300;2023-06-14T13:15:37;5.88;;;1.80;;
28245;SDS011;15510;52.512;13.300;2023-06-14T13:18:03;7.53;;;2.00;;
28245;SDS011;15510;52.512;13.300;2023-06-14T13:20:32;6.07;;;1.80;;
28245;SDS011;15510;52.512;13.300;2023-06-14T13:22:58;3.03;;;1.73;;
28245;SDS011;15510;52.512;13.300;2023-06-14T13:25:24;5.53;;;1.60;;
28245;SDS011;15510;52.512;13.300;2023-06-14T13:27:50;6.85;;;1.63;;
28245;SDS011;15510;52.512;13.300;2023-06-14T13:30:16;4.03;;;1.52;;
28245;SDS011;15510;52.512;13.300;2023-06-14T13:32:42;4.25;;;1.63;;
28245;SDS011;15510;52.512;13.300;2023-06-14T13:35:10;5.97;;;1.92;;
28245;SDS011;15510;52.512;13.300;2023-06-14T13:37:41;5.90;;;2.03;;
28245;SDS011;15510;52.512;13.300;2023-06-14T13:40:07;10.18;;;2.00;;
28245;SDS011;15510;52.512;13.300;2023-06-14T13:42:36;4.65;;;1.70;;
28245;SDS011;15510;52.512;13.300;2023-06-14T13:45:05;4.57;;;1.55;;
28245;SDS011;15510;52.512;13.300;2023-06-14T13:47:32;13.68;;;4.57;;
28245;SDS011;15510;52.512;13.300;2023-06-14T13:49:58;5.68;;;2.05;;
28245;SDS011;15510;52.512;13.300;2023-06-14T13:52:33;6.88;;;1.80;;
28245;SDS011;15510;52.512;13.300;2023-06-14T13:55:00;3.83;;;2.22;;
28245;SDS011;15510;52.512;13.300;2023-06-14T13:57:50;4.30;;;1.77;;
28245;SDS011;15510;52.512;13.300;2023-06-14T14:00:29;6.32;;;1.98;;
28245;SDS011;15510;52.512;13.300;2023-06-14T14:03:16;9.10;;;2.00;;
28245;SDS011;15510;52.512;13.300;2023-06-14T14:05:44;2.63;;;1.90;;
28245;SDS011;15510;52.512;13.300;2023-06-14T14:08:20;8.13;;;2.97;;
28245;SDS011;15510;52.512;13.300;2023-06-14T14:10:50;9.55;;;1.90;;
28245;SDS011;15510;52.512;13.300;2023-06-14T14:13:25;4.25;;;1.70;;
28245;SDS011;15510;52.512;13.300;2023-06-14T14:16:02;7.45;;;2.08;;
28245;SDS011;15510;52.512;13.300;2023-06-14T14:19:00;5.15;;;1.77;;
28245;SDS011;15510;52.512;13.300;2023-06-14T14:21:33;6.47;;;2.38;;
28245;SDS011;15510;52.512;13.300;2023-06-14T14:24:12;4.82;;;1.90;;
28245;SDS011;15510;52.512;13.300;2023-06-14T14:26:48;8.82;;;2.30;;
28245;SDS011;15510;52.512;13.300;2023-06-14T14:29:17;9.50;;;2.40;;
28245;SDS011;15510;52.512;13.300;2023-06-14T14:31:43;11.88;;;3.15;;
28245;SDS011;15510;52.512;13.300;2023-06-14T14:34:08;5.05;;;2.30;;
28245;SDS011;15510;52.512;13.300;2023-06-14T14:36:34;9.02;;;2.42;;
28245;SDS011;15510;52.512;13.300;2023-06-14T14:39:06;7.55;;;3.70;;
28245;SDS011;15510;52.512;13.300;2023-06-14T14:41:34;7.00;;;2.60;;
28245;SDS011;15510;52.512;13.300;2023-06-14T14:44:09;6.75;;;2.50;;
28245;SDS011;15510;52.512;13.300;2023-06-14T14:46:48;6.32;;;2.22;;
28245;SDS011;15510;52.512;13.300;2023-06-14T14:49:17;6.32;;;2.35;;
28245;SDS011;15510;52.512;13.300;2023-06-14T14:51:46;4.80;;;2.60;;
28245;SDS011;15510;52.512;13.300;2023-06-14T14:54:21;6.82;;;2.20;;
28245;SDS011;15510;52.512;13.300;2023-06-14T14:57:01;5.30;;;2.75;;
28245;SDS011;15510;52.512;13.300;2023-06-14T14:59:27;6.20;;;2.25;;
28245;SDS011;15510;52.512;13.300;2023-06-14T15:01:53;8.70;;;2.30;;
28245;SDS011;15510;52.512;13.300;2023-06-14T15:04:18;6.95;;;2.10;;
28245;SDS011;15510;52.512;13.300;2023-06-14T15:06:44;5.28;;;2.40;;
28245;SDS011;15510;52.512;13.300;2023-06-14T15:09:12;5.38;;;2.33;;
28245;SDS011;15510;52.512;13.300;2023-06-14T15:11:42;6.93;;;2.40;;
28245;SDS011;15510;52.512;13.300;2023-06-14T15:14:15;5.55;;;2.10;;
28245;SDS011;15510;52.512;13.300;2023-06-14T15:16:43;5.07;;;2.40;;
28245;SDS011;15510;52.512;13.300;2023-06-14T15:19:17;5.93;;;2.45;;
28245;SDS011;15510;52.512;13.300;2023-06-14T15:21:43;11.43;;;2.42;;
28245;SDS011;15510;52.512;13.300;2023-06-14T15:24:09;5.38;;;2.05;;
28245;SDS011;15510;52.512;13.300;2023-06-14T15:26:35;9.57;;;2.08;;
28245;SDS011;15510;52.512;13.300;2023-06-14T15:29:03;5.85;;;3.03;;